Time;durP1;ratioP1;P1;durP2;ratioP2;P2;SDS_P1;SDS_P2;PMS_P1;PMS_P2;Temp;Humidity;BMP_temperature;BMP_pressure;BME280_temperature;BME280_humidity;BME280_pressure;Samples;Min_cycle;Max_cycle;Signal;HPM_P1;HPM_P2
2022/07/19 12:56:41;;;;;;;22.73;10.23;;;;;;;;;;5046666;27;23178;-69
2022/07/19 13:01:55;;;;;;;6.45;3.10;;;;;;;;;;5003283;28;20088;-70
2022/07/19 13:04:33;;;;;;;9.30;3.13;;;;;;;;;;4992976;28;20069;-70
2022/07/19 13:07:01;;;;;;;5.70;3.03;;;;;;;;;;4988097;28;20112;-69
2022/07/19 13:09:28;;;;;;;6.18;2.83;;;;;;;;;;4992001;28;20042;-67
2022/07/19 13:11:55;;;;;;;8.55;4.00;;;;;;;;;;4996040;28;20866;-68
2022/07/19 13:14:23;;;;;;;5.78;3.13;;;;;;;;;;4993128;28;20073;-69
2022/07/19 13:16:53;;;;;;;6.65;3.28;;;;;;;;;;4994718;28;20034;-68
2022/07/19 13:19:20;;;;;;;4.70;2.58;;;;;;;;;;4993329;28;20037;-68
2022/07/19 13:21:47;;;;;;;4.57;2.33;;;;;;;;;;4996056;28;20034;-69
2022/07/19 13:24:13;;;;;;;5.88;2.67;;;;;;;;;;4983681;28;20034;-68
2022/07/19 13:26:40;;;;;;;5.75;2.60;;;;;;;;;;5001942;28;20042;-65
2022/07/19 13:29:07;;;;;;;5.97;2.42;;;;;;;;;;4994950;28;20042;-67
2022/07/19 13:31:33;;;;;;;5.65;2.53;;;;;;;;;;5011202;28;20041;-69
2022/07/19 13:34:00;;;;;;;5.57;2.58;;;;;;;;;;4999744;28;20042;-68
2022/07/19 13:36:30;;;;;;;5.22;2.42;;;;;;;;;;4983588;28;20026;-69
2022/07/19 13:38:56;;;;;;;5.95;2.55;;;;;;;;;;5006114;28;20038;-68
2022/07/19 13:41:23;;;;;;;8.13;2.95;;;;;;;;;;4998721;28;20046;-69
2022/07/19 13:43:52;;;;;;;7.70;2.53;;;;;;;;;;4991688;28;20789;-68
2022/07/19 13:46:20;;;;;;;6.13;2.20;;;;;;;;;;4990897;28;20038;-68
2022/07/19 13:48:47;;;;;;;5.47;2.30;;;;;;;;;;4991946;28;20490;-68
2022/07/19 13:51:14;;;;;;;5.85;2.80;;;;;;;;;;4993820;28;20065;-68
2022/07/19 13:53:41;;;;;;;7.55;2.45;;;;;;;;;;5016590;28;20038;-69
2022/07/19 13:56:08;;;;;;;5.68;2.30;;;;;;;;;;4994891;28;20112;-69
2022/07/19 13:58:34;;;;;;;5.13;2.13;;;;;;;;;;4996859;28;20030;-69
2022/07/19 14:01:01;;;;;;;5.85;2.58;;;;;;;;;;4992919;28;20049;-66
2022/07/19 14:03:28;;;;;;;6.43;2.53;;;;;;;;;;4992578;28;20088;-69
2022/07/19 14:05:55;;;;;;;5.78;2.72;;;;;;;;;;4988344;28;20046;-68
2022/07/19 14:08:22;;;;;;;5.47;2.10;;;;;;;;;;4979500;28;20046;-68
2022/07/19 14:10:49;;;;;;;5.50;2.47;;;;;;;;;;4979661;28;20038;-68
2022/07/19 14:13:15;;;;;;;8.55;2.67;;;;;;;;;;4996885;28;20073;-68
2022/07/19 14:15:42;;;;;;;4.38;2.05;;;;;;;;;;4979347;28;20050;-68
2022/07/19 14:18:09;;;;;;;5.97;2.20;;;;;;;;;;4979612;28;20130;-68
2022/07/19 14:20:37;;;;;;;6.85;2.53;;;;;;;;;;4980068;28;20439;-68
2022/07/19 14:23:03;;;;;;;5.85;2.13;;;;;;;;;;4981620;28;20034;-68
2022/07/19 14:25:30;;;;;;;5.97;2.17;;;;;;;;;;4980678;28;21756;-67
2022/07/19 14:27:57;;;;;;;5.20;2.17;;;;;;;;;;5001012;28;20065;-68
2022/07/19 14:30:24;;;;;;;7.22;1.88;;;;;;;;;;4982126;28;20044;-68
2022/07/19 14:32:51;;;;;;;6.40;2.33;;;;;;;;;;4980258;28;20620;-68
2022/07/19 14:35:18;;;;;;;5.88;2.10;;;;;;;;;;4980006;28;20089;-67
2022/07/19 14:37:45;;;;;;;4.38;1.80;;;;;;;;;;4980966;28;20506;-68
2022/07/19 14:40:12;;;;;;;8.73;2.15;;;;;;;;;;4981622;28;20053;-67
2022/07/19 14:42:39;;;;;;;3.75;1.63;;;;;;;;;;4980282;28;20034;-68
2022/07/19 14:45:07;;;;;;;4.25;1.90;;;;;;;;;;4981415;28;20042;-67
2022/07/19 14:47:34;;;;;;;3.97;1.70;;;;;;;;;;4981365;28;20034;-67
2022/07/19 14:50:01;;;;;;;4.80;2.10;;;;;;;;;;4981841;28;20537;-68
2022/07/19 14:52:28;;;;;;;6.60;1.95;;;;;;;;;;4981854;28;20026;-68
2022/07/19 14:54:55;;;;;;;5.78;2.10;;;;;;;;;;4981699;28;20046;-68
2022/07/19 14:57:22;;;;;;;4.90;2.03;;;;;;;;;;4987130;28;20116;-69
2022/07/19 14:59:49;;;;;;;4.15;1.90;;;;;;;;;;4987298;28;20047;-69
2022/07/19 15:02:16;;;;;;;6.18;2.13;;;;;;;;;;4980408;28;20124;-69
2022/07/19 15:04:43;;;;;;;4.18;2.03;;;;;;;;;;4978329;28;20037;-68
2022/07/19 15:07:09;;;;;;;6.03;2.00;;;;;;;;;;4996448;28;20042;-69
2022/07/19 15:09:36;;;;;;;5.78;2.15;;;;;;;;;;4980041;28;20190;-67
2022/07/19 15:12:04;;;;;;;5.25;1.90;;;;;;;;;;4981901;28;20936;-68
2022/07/19 15:14:31;;;;;;;4.53;2.13;;;;;;;;;;4979988;28;20054;-68
2022/07/19 15:17:02;;;;;;;6.13;1.70;;;;;;;;;;4978924;28;20041;-68
2022/07/19 15:19:29;;;;;;;4.72;1.88;;;;;;;;;;4978903;28;20044;-68
2022/07/19 15:21:56;;;;;;;6.30;1.92;;;;;;;;;;4981706;28;20060;-67
2022/07/19 15:24:23;;;;;;;5.45;2.10;;;;;;;;;;4987767;28;20087;-68
2022/07/19 15:26:49;;;;;;;7.28;1.85;;;;;;;;;;4998654;28;20053;-68
2022/07/19 15:29:16;;;;;;;4.95;1.77;;;;;;;;;;5000954;28;20049;-68
2022/07/19 15:31:44;;;;;;;4.45;1.88;;;;;;;;;;4985127;28;20053;-68
2022/07/19 15:34:10;;;;;;;5.07;1.80;;;;;;;;;;4978474;28;20062;-67
2022/07/19 15:36:37;;;;;;;6.30;1.83;;;;;;;;;;4979090;28;20041;-69
2022/07/19 15:39:04;;;;;;;6.68;1.70;;;;;;;;;;4980778;28;20046;-69
2022/07/19 15:41:31;;;;;;;3.97;1.50;;;;;;;;;;4979456;28;20046;-69
2022/07/19 15:43:58;;;;;;;6.93;2.05;;;;;;;;;;4978859;28;20042;-69
2022/07/19 15:46:28;;;;;;;4.03;1.73;;;;;;;;;;4997623;28;20053;-67
2022/07/19 15:48:55;;;;;;;4.03;1.58;;;;;;;;;;4985750;28;20107;-68
2022/07/19 15:51:22;;;;;;;3.90;1.60;;;;;;;;;;4978286;28;20100;-69
2022/07/19 15:53:49;;;;;;;3.33;1.58;;;;;;;;;;4979370;28;20038;-68
2022/07/19 15:56:16;;;;;;;3.78;1.52;;;;;;;;;;4978646;28;20034;-68
2022/07/19 15:58:42;;;;;;;4.32;1.52;;;;;;;;;;4977658;28;20625;-68
2022/07/19 16:01:09;;;;;;;5.97;1.40;;;;;;;;;;4993047;28;20628;-68
2022/07/19 16:03:36;;;;;;;3.78;1.77;;;;;;;;;;4985268;28;20043;-69
2022/07/19 16:06:02;;;;;;;3.60;1.45;;;;;;;;;;4980620;28;20078;-69
2022/07/19 16:08:29;;;;;;;4.50;1.67;;;;;;;;;;4977734;28;20529;-69
2022/07/19 16:10:56;;;;;;;10.38;2.60;;;;;;;;;;4979118;28;20030;-69
2022/07/19 16:13:22;;;;;;;10.13;3.25;;;;;;;;;;4977014;28;20129;-69
2022/07/19 16:15:49;;;;;;;6.75;2.90;;;;;;;;;;4978779;28;20519;-68
2022/07/19 16:18:16;;;;;;;7.63;3.08;;;;;;;;;;4978227;28;20057;-69
2022/07/19 16:20:43;;;;;;;11.20;2.80;;;;;;;;;;4978472;28;20065;-68
2022/07/19 16:23:09;;;;;;;8.20;2.70;;;;;;;;;;4994007;28;20046;-69
2022/07/19 16:25:36;;;;;;;6.18;2.67;;;;;;;;;;4995229;28;20165;-69
2022/07/19 16:28:03;;;;;;;5.65;2.50;;;;;;;;;;4978211;28;20247;-68
2022/07/19 16:30:30;;;;;;;8.45;2.50;;;;;;;;;;4979473;28;20046;-69
2022/07/19 16:32:56;;;;;;;6.28;2.25;;;;;;;;;;4986379;28;20126;-68
2022/07/19 16:35:23;;;;;;;7.53;2.30;;;;;;;;;;4976001;28;20169;-68
2022/07/19 16:37:50;;;;;;;8.35;2.47;;;;;;;;;;4988655;28;20108;-68
2022/07/19 16:40:16;;;;;;;8.00;2.45;;;;;;;;;;4979943;28;20129;-68
2022/07/19 16:42:43;;;;;;;9.88;2.78;;;;;;;;;;4994643;28;20117;-68
2022/07/19 16:45:10;;;;;;;6.85;2.40;;;;;;;;;;4978856;28;20046;-69
2022/07/19 16:47:38;;;;;;;6.07;2.38;;;;;;;;;;4997593;28;20042;-68
2022/07/19 16:50:05;;;;;;;4.63;2.40;;;;;;;;;;4985342;28;20046;-68
2022/07/19 16:52:32;;;;;;;5.45;2.47;;;;;;;;;;4977521;28;20050;-68
2022/07/19 16:54:59;;;;;;;4.47;2.10;;;;;;;;;;4976919;28;20540;-68
2022/07/19 16:57:25;;;;;;;5.13;2.15;;;;;;;;;;4978642;28;20035;-68
2022/07/19 16:59:52;;;;;;;5.13;2.35;;;;;;;;;;4979919;28;20043;-67
2022/07/19 17:02:22;;;;;;;7.10;2.13;;;;;;;;;;4979287;28;20041;-68
2022/07/19 17:04:48;;;;;;;4.20;1.80;;;;;;;;;;4977384;28;20109;-68
2022/07/19 17:07:17;;;;;;;5.00;1.77;;;;;;;;;;4979121;28;20034;-68
2022/07/19 17:09:44;;;;;;;5.15;2.30;;;;;;;;;;4979142;28;20038;-67
2022/07/19 17:12:11;;;;;;;5.10;2.10;;;;;;;;;;4977440;28;20050;-68
2022/07/19 17:14:37;;;;;;;8.20;2.33;;;;;;;;;;4976475;28;20518;-68
2022/07/19 17:17:04;;;;;;;5.25;1.75;;;;;;;;;;4977896;28;20039;-67
2022/07/19 17:19:31;;;;;;;4.68;1.50;;;;;;;;;;4994237;28;20052;-68
2022/07/19 17:21:57;;;;;;;3.17;1.10;;;;;;;;;;4979622;28;20046;-68
2022/07/19 17:24:24;;;;;;;3.58;1.00;;;;;;;;;;4979135;28;20136;-68
2022/07/19 17:26:51;;;;;;;2.60;0.90;;;;;;;;;;4979869;28;20042;-69
2022/07/19 17:29:17;;;;;;;3.08;1.10;;;;;;;;;;4980470;28;20038;-69
2022/07/19 17:31:44;;;;;;;3.38;1.13;;;;;;;;;;4979295;28;20118;-69
2022/07/19 17:34:12;;;;;;;3.10;0.80;;;;;;;;;;4978166;28;20129;-69
2022/07/19 17:36:39;;;;;;;5.00;1.00;;;;;;;;;;4979496;28;20351;-68
2022/07/19 17:39:07;;;;;;;2.85;1.00;;;;;;;;;;4985011;28;20041;-68
2022/07/19 17:41:34;;;;;;;3.08;0.95;;;;;;;;;;4981490;28;20043;-69
2022/07/19 17:44:00;;;;;;;3.05;0.90;;;;;;;;;;4981935;28;20038;-68
2022/07/19 17:46:27;;;;;;;4.82;0.98;;;;;;;;;;4981905;28;20045;-69
2022/07/19 17:48:54;;;;;;;2.58;0.98;;;;;;;;;;4978939;28;20038;-70
2022/07/19 17:51:20;;;;;;;2.58;0.80;;;;;;;;;;4983091;28;20112;-68
2022/07/19 17:53:47;;;;;;;2.50;1.00;;;;;;;;;;4984968;28;20410;-70
2022/07/19 17:56:14;;;;;;;2.38;0.80;;;;;;;;;;5004074;28;20137;-70
2022/07/19 17:58:41;;;;;;;12.85;3.25;;;;;;;;;;5003306;28;20042;-70
2022/07/19 18:01:07;;;;;;;4.45;1.08;;;;;;;;;;5003957;28;20047;-67
2022/07/19 18:03:34;;;;;;;2.95;1.00;;;;;;;;;;4992136;28;20034;-70
2022/07/19 18:06:01;;;;;;;5.82;1.00;;;;;;;;;;4984632;28;20564;-69
2022/07/19 18:08:27;;;;;;;3.85;1.10;;;;;;;;;;4984227;28;20042;-69
2022/07/19 18:10:54;;;;;;;9.15;1.25;;;;;;;;;;4984508;28;20099;-68
2022/07/19 18:13:21;;;;;;;13.35;4.43;;;;;;;;;;4991174;28;20169;-68
2022/07/19 18:15:48;;;;;;;4.40;1.30;;;;;;;;;;4990013;28;20042;-67
2022/07/19 18:18:15;;;;;;;3.03;1.10;;;;;;;;;;4982102;28;20497;-69
2022/07/19 18:20:41;;;;;;;4.00;1.13;;;;;;;;;;4981255;28;20043;-69
2022/07/19 18:23:08;;;;;;;2.42;1.02;;;;;;;;;;4999228;28;20193;-69
2022/07/19 18:25:35;;;;;;;3.67;0.98;;;;;;;;;;4980082;28;20112;-71
2022/07/19 18:28:01;;;;;;;2.67;1.10;;;;;;;;;;4982240;28;20256;-71
2022/07/19 18:30:28;;;;;;;2.50;0.77;;;;;;;;;;4982428;28;20068;-69
2022/07/19 18:32:55;;;;;;;3.35;0.98;;;;;;;;;;4981586;28;20049;-70
2022/07/19 18:35:21;;;;;;;2.15;0.80;;;;;;;;;;4982605;28;20038;-70
2022/07/19 18:37:48;;;;;;;2.70;0.90;;;;;;;;;;4981637;28;20054;-71
2022/07/19 18:40:15;;;;;;;2.42;0.80;;;;;;;;;;4998377;28;20935;-70
2022/07/19 18:42:42;;;;;;;3.95;1.00;;;;;;;;;;4982394;28;20039;-69
2022/07/19 18:45:09;;;;;;;2.75;0.98;;;;;;;;;;4989128;28;20074;-70
2022/07/19 18:47:36;;;;;;;7.15;0.98;;;;;;;;;;4991044;28;20050;-70
2022/07/19 18:50:03;;;;;;;3.30;0.93;;;;;;;;;;4984670;28;20042;-70
2022/07/19 18:52:30;;;;;;;2.63;0.80;;;;;;;;;;4980859;28;20038;-69
2022/07/19 18:54:56;;;;;;;2.33;0.70;;;;;;;;;;4980828;28;20053;-69
2022/07/19 18:57:23;;;;;;;2.80;0.93;;;;;;;;;;4979272;28;20373;-70
2022/07/19 18:59:50;;;;;;;4.35;0.90;;;;;;;;;;4979581;28;20050;-69
2022/07/19 19:02:17;;;;;;;2.85;0.70;;;;;;;;;;4979589;28;20035;-70
2022/07/19 19:04:44;;;;;;;2.35;0.77;;;;;;;;;;5000289;28;20056;-70
2022/07/19 19:07:10;;;;;;;2.33;0.65;;;;;;;;;;4998932;28;20109;-70
2022/07/19 19:09:37;;;;;;;2.50;0.82;;;;;;;;;;4998101;28;20046;-69
2022/07/19 19:12:04;;;;;;;3.28;0.80;;;;;;;;;;4998492;28;20581;-70
2022/07/19 19:14:31;;;;;;;3.05;0.90;;;;;;;;;;4994374;28;20046;-69
2022/07/19 19:16:58;;;;;;;3.33;1.00;;;;;;;;;;4979362;28;20040;-70
2022/07/19 19:19:24;;;;;;;4.28;0.95;;;;;;;;;;4986556;28;20117;-70
2022/07/19 19:21:51;;;;;;;2.50;0.90;;;;;;;;;;4978414;28;20061;-71
2022/07/19 19:24:18;;;;;;;2.50;0.80;;;;;;;;;;4991884;28;20545;-69
2022/07/19 19:26:45;;;;;;;2.75;0.88;;;;;;;;;;4978329;28;20050;-68
2022/07/19 19:29:12;;;;;;;3.00;1.00;;;;;;;;;;4979332;28;20057;-69
2022/07/19 19:31:38;;;;;;;4.13;0.88;;;;;;;;;;4976137;28;20038;-69
2022/07/19 19:34:05;;;;;;;3.03;0.80;;;;;;;;;;4975992;28;20393;-68
2022/07/19 19:36:32;;;;;;;2.38;0.70;;;;;;;;;;4977192;28;20065;-67
2022/07/19 19:38:58;;;;;;;2.38;0.77;;;;;;;;;;4978682;28;20077;-68
2022/07/19 19:41:26;;;;;;;2.17;0.70;;;;;;;;;;4978759;28;20043;-68
2022/07/19 19:43:56;;;;;;;2.65;0.85;;;;;;;;;;4992178;28;20046;-69
2022/07/19 19:46:23;;;;;;;2.40;0.80;;;;;;;;;;4994094;28;20041;-69
2022/07/19 19:48:49;;;;;;;2.17;0.80;;;;;;;;;;4981451;28;20165;-69
2022/07/19 19:51:16;;;;;;;3.03;0.88;;;;;;;;;;4977609;28;20148;-69
2022/07/19 19:53:43;;;;;;;5.00;0.90;;;;;;;;;;4974477;28;20100;-68
2022/07/19 19:56:10;;;;;;;2.38;0.80;;;;;;;;;;4993756;28;20104;-69
2022/07/19 19:58:37;;;;;;;2.72;0.70;;;;;;;;;;4989933;28;20077;-69
2022/07/19 20:01:04;;;;;;;1.98;0.70;;;;;;;;;;4976104;28;20066;-68
2022/07/19 20:03:31;;;;;;;3.60;0.90;;;;;;;;;;4976813;28;20621;-69
2022/07/19 20:05:57;;;;;;;2.47;0.73;;;;;;;;;;4977427;28;20407;-68
2022/07/19 20:08:24;;;;;;;2.10;0.70;;;;;;;;;;4993591;28;20042;-69
2022/07/19 20:10:53;;;;;;;3.50;0.70;;;;;;;;;;4978019;28;20491;-69
2022/07/19 20:13:23;;;;;;;10.50;0.95;;;;;;;;;;4992969;28;20039;-69
2022/07/19 20:15:50;;;;;;;4.72;0.80;;;;;;;;;;4993185;28;20070;-69
2022/07/19 20:18:17;;;;;;;2.38;0.70;;;;;;;;;;4979215;28;20039;-69
2022/07/19 20:20:44;;;;;;;2.53;0.70;;;;;;;;;;4977875;28;20716;-66
2022/07/19 20:23:10;;;;;;;3.25;0.90;;;;;;;;;;4983646;28;20034;-66
2022/07/19 20:25:37;;;;;;;2.30;0.70;;;;;;;;;;4979936;28;20069;-69
2022/07/19 20:28:04;;;;;;;2.90;0.70;;;;;;;;;;4996530;28;20065;-69
2022/07/19 20:30:31;;;;;;;2.42;0.85;;;;;;;;;;4987491;28;20054;-68
2022/07/19 20:32:58;;;;;;;1.95;0.60;;;;;;;;;;4979185;28;20034;-68
2022/07/19 20:35:25;;;;;;;1.67;0.57;;;;;;;;;;4981663;28;20043;-68
2022/07/19 20:37:52;;;;;;;6.32;0.63;;;;;;;;;;4998777;28;20046;-67
2022/07/19 20:40:18;;;;;;;4.18;0.77;;;;;;;;;;4988785;28;20037;-68
2022/07/19 20:42:45;;;;;;;2.22;0.70;;;;;;;;;;4980470;28;20045;-69
2022/07/19 20:45:13;;;;;;;1.77;0.63;;;;;;;;;;4996870;28;20133;-68
2022/07/19 20:47:40;;;;;;;1.75;0.63;;;;;;;;;;5000145;28;20498;-68
2022/07/19 20:50:07;;;;;;;3.40;0.80;;;;;;;;;;4979727;28;20606;-68
2022/07/19 20:52:34;;;;;;;2.15;0.60;;;;;;;;;;4979736;28;20050;-68
2022/07/19 20:55:03;;;;;;;2.28;0.75;;;;;;;;;;4978415;28;20042;-68
2022/07/19 20:57:30;;;;;;;5.65;0.90;;;;;;;;;;4978862;28;20043;-68
2022/07/19 20:59:57;;;;;;;3.42;0.90;;;;;;;;;;4976903;28;20041;-68
2022/07/19 21:02:23;;;;;;;2.60;0.60;;;;;;;;;;4977804;28;20487;-67
2022/07/19 21:04:50;;;;;;;1.92;0.68;;;;;;;;;;4979777;28;20050;-68
2022/07/19 21:07:17;;;;;;;4.82;0.90;;;;;;;;;;4978001;28;20073;-69
2022/07/19 21:09:43;;;;;;;2.10;0.60;;;;;;;;;;4971811;28;20069;-67
2022/07/19 21:12:10;;;;;;;1.83;0.70;;;;;;;;;;4999956;28;20117;-69
2022/07/19 21:14:37;;;;;;;2.63;0.90;;;;;;;;;;4980932;28;20886;-67
2022/07/19 21:17:04;;;;;;;2.65;0.80;;;;;;;;;;4998023;28;20039;-68
2022/07/19 21:19:30;;;;;;;2.75;0.90;;;;;;;;;;5003491;28;20038;-67
2022/07/19 21:21:57;;;;;;;2.00;0.80;;;;;;;;;;4985687;28;20363;-68
2022/07/19 21:24:24;;;;;;;2.33;0.70;;;;;;;;;;4995518;28;20466;-68
2022/07/19 21:26:50;;;;;;;2.80;0.90;;;;;;;;;;4984457;28;20050;-67
2022/07/19 21:29:18;;;;;;;2.33;0.82;;;;;;;;;;4991524;28;20431;-67
2022/07/19 21:31:44;;;;;;;4.22;0.90;;;;;;;;;;5001414;28;20041;-68
2022/07/19 21:34:11;;;;;;;4.57;1.00;;;;;;;;;;4987858;28;20034;-68
2022/07/19 21:36:38;;;;;;;2.65;0.80;;;;;;;;;;4981591;28;20042;-67
2022/07/19 21:39:07;;;;;;;4.00;1.00;;;;;;;;;;4982812;28;20133;-66
2022/07/19 21:41:39;;;;;;;2.40;0.70;;;;;;;;;;4980909;28;20041;-68
2022/07/19 21:44:06;;;;;;;2.97;0.73;;;;;;;;;;4980623;28;20061;-68
2022/07/19 21:46:33;;;;;;;2.83;0.90;;;;;;;;;;4980760;28;20089;-68
2022/07/19 21:49:01;;;;;;;2.28;0.75;;;;;;;;;;4996017;28;20038;-66
2022/07/19 21:51:28;;;;;;;4.35;0.70;;;;;;;;;;4982627;28;20042;-66
2022/07/19 21:53:55;;;;;;;2.25;0.70;;;;;;;;;;4979089;28;20092;-67
2022/07/19 21:56:22;;;;;;;3.03;0.90;;;;;;;;;;4980185;28;20050;-69
2022/07/19 21:58:49;;;;;;;4.43;1.10;;;;;;;;;;4980204;28;20046;-68
2022/07/19 22:01:16;;;;;;;2.35;0.73;;;;;;;;;;4982349;28;20764;-68
2022/07/19 22:03:43;;;;;;;3.42;1.00;;;;;;;;;;4980403;28;20046;-68
2022/07/19 22:06:09;;;;;;;2.60;0.90;;;;;;;;;;4982577;28;20069;-68
2022/07/19 22:08:36;;;;;;;3.10;0.70;;;;;;;;;;4997617;28;20038;-67
2022/07/19 22:11:03;;;;;;;3.22;0.80;;;;;;;;;;4981510;28;20116;-67
2022/07/19 22:13:30;;;;;;;3.92;0.93;;;;;;;;;;4981477;28;20049;-67
2022/07/19 22:15:57;;;;;;;2.35;0.80;;;;;;;;;;4984198;28;20618;-68
2022/07/19 22:18:24;;;;;;;6.43;0.77;;;;;;;;;;4980342;28;20226;-68
2022/07/19 22:20:51;;;;;;;6.03;1.25;;;;;;;;;;4983750;28;20041;-68
2022/07/19 22:23:18;;;;;;;2.72;0.70;;;;;;;;;;4983536;28;20098;-67
2022/07/19 22:25:46;;;;;;;2.65;0.90;;;;;;;;;;4984271;28;20069;-68
2022/07/19 22:28:13;;;;;;;3.08;1.05;;;;;;;;;;4990339;28;20036;-69
2022/07/19 22:30:40;;;;;;;5.03;0.90;;;;;;;;;;5000317;28;20061;-68
2022/07/19 22:33:06;;;;;;;6.05;1.00;;;;;;;;;;4997014;28;20121;-67
2022/07/19 22:35:33;;;;;;;4.18;1.38;;;;;;;;;;4997925;28;20613;-67
2022/07/19 22:38:01;;;;;;;4.88;0.93;;;;;;;;;;5000148;28;20046;-68
2022/07/19 22:40:28;;;;;;;2.35;0.80;;;;;;;;;;4998473;28;20046;-68
2022/07/19 22:42:55;;;;;;;2.50;0.77;;;;;;;;;;4997867;28;20065;-66
2022/07/19 22:45:21;;;;;;;3.17;0.90;;;;;;;;;;5000050;28;20046;-66
2022/07/19 22:47:48;;;;;;;3.90;0.95;;;;;;;;;;5000125;28;20080;-65
2022/07/19 22:50:15;;;;;;;4.30;1.13;;;;;;;;;;5001094;28;20083;-65
2022/07/19 22:52:41;;;;;;;2.42;0.77;;;;;;;;;;4997189;28;20152;-65
2022/07/19 22:55:08;;;;;;;6.50;1.10;;;;;;;;;;5000540;28;20133;-65
2022/07/19 22:57:35;;;;;;;4.78;1.10;;;;;;;;;;4999584;28;20046;-65
2022/07/19 23:00:02;;;;;;;3.25;0.98;;;;;;;;;;5003005;28;20041;-65
2022/07/19 23:02:28;;;;;;;3.15;0.80;;;;;;;;;;5000186;28;20149;-66
2022/07/19 23:04:55;;;;;;;3.60;0.90;;;;;;;;;;5001334;28;20050;-65
2022/07/19 23:07:22;;;;;;;5.63;1.08;;;;;;;;;;5001004;28;20053;-66
2022/07/19 23:09:48;;;;;;;4.53;1.08;;;;;;;;;;5019223;28;20058;-66
2022/07/19 23:12:15;;;;;;;2.55;1.00;;;;;;;;;;5000498;28;20034;-65
2022/07/19 23:14:42;;;;;;;2.25;0.80;;;;;;;;;;5000079;28;20049;-68
2022/07/19 23:17:08;;;;;;;3.97;0.90;;;;;;;;;;5016212;28;20045;-66
2022/07/19 23:19:35;;;;;;;3.25;0.82;;;;;;;;;;4999321;28;20041;-67
2022/07/19 23:22:01;;;;;;;2.55;0.80;;;;;;;;;;5016835;28;20042;-66
2022/07/19 23:24:28;;;;;;;4.35;0.90;;;;;;;;;;5016624;28;20076;-67
2022/07/19 23:26:55;;;;;;;3.85;0.82;;;;;;;;;;5001516;28;20037;-65
2022/07/19 23:29:21;;;;;;;6.82;0.90;;;;;;;;;;5000800;28;20036;-65
2022/07/19 23:31:48;;;;;;;3.25;1.05;;;;;;;;;;5001345;28;20053;-66
2022/07/19 23:34:15;;;;;;;4.13;1.00;;;;;;;;;;5000717;28;20045;-64
2022/07/19 23:36:45;;;;;;;3.00;0.90;;;;;;;;;;5001880;28;20038;-64
2022/07/19 23:39:12;;;;;;;2.80;0.90;;;;;;;;;;4998051;28;20046;-65
2022/07/19 23:41:38;;;;;;;3.17;0.98;;;;;;;;;;4997871;28;21777;-65
2022/07/19 23:44:05;;;;;;;3.42;1.05;;;;;;;;;;5000968;28;20037;-66
2022/07/19 23:46:35;;;;;;;11.90;1.40;;;;;;;;;;4999503;28;20604;-66
2022/07/19 23:49:01;;;;;;;4.65;1.02;;;;;;;;;;4999383;28;20044;-66
2022/07/19 23:51:28;;;;;;;6.30;0.98;;;;;;;;;;4998214;28;20968;-65
2022/07/19 23:53:55;;;;;;;3.20;1.02;;;;;;;;;;5013857;28;20081;-66
2022/07/19 23:56:21;;;;;;;4.72;0.90;;;;;;;;;;4999140;28;20048;-66
2022/07/19 23:58:50;;;;;;;3.38;1.05;;;;;;;;;;4998033;28;20447;-67
